Time;durP1;ratioP1;P1;durP2;ratioP2;P2;SDS_P1;SDS_P2;PMS_P1;PMS_P2;Temp;Humidity;BMP_temperature;BMP_pressure;BME280_temperature;BME280_humidity;BME280_pressure;Samples;Min_cycle;Max_cycle;Signal;HPM_P1;HPM_P2
2023/07/03 00:01:11;;;;;;;0.00;0.00;;;15.60;99.90;;;;;;4999973;28;20049;-69
2023/07/03 00:03:38;;;;;;;0.00;0.00;;;15.50;99.90;;;;;;4999520;28;20566;-69
2023/07/03 00:06:04;;;;;;;0.00;0.00;;;15.50;99.90;;;;;;5002094;28;20104;-68
2023/07/03 00:08:29;;;;;;;0.00;0.00;;;15.50;99.90;;;;;;5001118;28;20038;-68
2023/07/03 00:11:03;;;;;;;0.08;0.08;;;15.50;99.90;;;;;;5005792;28;20478;-69
2023/07/03 00:13:29;;;;;;;0.00;0.00;;;15.50;99.90;;;;;;4995795;28;20042;-68
2023/07/03 00:16:03;;;;;;;0.05;0.05;;;15.40;99.90;;;;;;4998383;28;20050;-69
2023/07/03 00:18:29;;;;;;;0.00;0.00;;;15.40;99.90;;;;;;5003732;28;20042;-68
2023/07/03 00:20:56;;;;;;;0.00;0.00;;;15.40;99.90;;;;;;5002463;28;20092;-69
2023/07/03 00:23:23;;;;;;;0.28;0.10;;;15.40;99.90;;;;;;4984229;28;20045;-69
2023/07/03 00:25:49;;;;;;;0.00;0.00;;;15.40;99.90;;;;;;5000452;28;20557;-68
2023/07/03 00:28:16;;;;;;;0.00;0.00;;;15.40;99.90;;;;;;5004518;28;20049;-68
2023/07/03 00:30:42;;;;;;;0.10;0.10;;;15.40;99.90;;;;;;4997329;28;20080;-69
2023/07/03 00:33:07;;;;;;;0.17;0.08;;;15.40;99.90;;;;;;5002146;28;20081;-69
2023/07/03 00:35:33;;;;;;;0.00;0.00;;;15.40;99.90;;;;;;4987681;28;20046;-68
2023/07/03 00:37:59;;;;;;;0.00;0.00;;;15.40;99.90;;;;;;5001821;28;20422;-68
2023/07/03 00:40:24;;;;;;;0.22;0.20;;;15.30;99.90;;;;;;5001272;28;20088;-68
2023/07/03 00:42:52;;;;;;;0.00;0.00;;;15.30;99.90;;;;;;5000632;28;20073;-69
2023/07/03 00:45:19;;;;;;;0.00;0.00;;;15.30;99.90;;;;;;4998017;28;20698;-68
2023/07/03 00:47:45;;;;;;;0.03;0.00;;;15.30;99.90;;;;;;4999838;28;20062;-68
2023/07/03 00:50:11;;;;;;;0.00;0.00;;;15.30;99.90;;;;;;4998177;28;20120;-68
2023/07/03 00:52:39;;;;;;;0.00;0.00;;;15.30;99.90;;;;;;4995967;28;20041;-69
2023/07/03 00:55:06;;;;;;;0.00;0.00;;;15.30;99.90;;;;;;5004761;28;20065;-69
2023/07/03 00:57:31;;;;;;;0.00;0.00;;;15.30;99.90;;;;;;4998983;28;20050;-68
2023/07/03 00:59:59;;;;;;;1.00;0.05;;;15.30;99.90;;;;;;4995146;28;20052;-69
2023/07/03 01:02:34;;;;;;;0.00;0.00;;;15.30;99.90;;;;;;4999415;28;20367;-72
2023/07/03 01:05:25;;;;;;;0.00;0.00;;;15.30;99.90;;;;;;4999623;28;20069;-72
2023/07/03 01:07:52;;;;;;;0.00;0.00;;;15.30;99.90;;;;;;5020185;28;20041;-72
2023/07/03 01:10:24;;;;;;;0.00;0.00;;;15.40;99.90;;;;;;4998247;28;20475;-72
2023/07/03 01:12:58;;;;;;;0.20;0.13;;;15.40;99.90;;;;;;5001492;28;20062;-72
2023/07/03 01:15:28;;;;;;;0.28;0.17;;;15.40;99.90;;;;;;5000408;28;20108;-72
2023/07/03 01:17:57;;;;;;;0.00;0.00;;;15.40;99.90;;;;;;5000784;28;20494;-72
2023/07/03 01:20:25;;;;;;;0.20;0.10;;;15.40;99.90;;;;;;5004950;28;20034;-71
2023/07/03 01:23:15;;;;;;;0.05;0.05;;;15.40;99.90;;;;;;4998818;28;20064;-72
2023/07/03 01:25:42;;;;;;;0.00;0.00;;;15.40;99.90;;;;;;5018217;28;20054;-72
2023/07/03 01:28:11;;;;;;;0.05;0.00;;;15.40;99.90;;;;;;4995259;28;20119;-72
2023/07/03 01:30:40;;;;;;;0.45;0.35;;;15.40;99.90;;;;;;4995989;28;20137;-72
2023/07/03 01:33:08;;;;;;;0.30;0.17;;;15.50;99.90;;;;;;5001523;28;20394;-71
2023/07/03 01:35:34;;;;;;;0.00;0.00;;;15.50;99.90;;;;;;5002401;28;20771;-71
2023/07/03 01:38:01;;;;;;;0.10;0.05;;;15.50;99.90;;;;;;5005403;28;20092;-71
2023/07/03 01:40:27;;;;;;;0.00;0.00;;;15.50;99.90;;;;;;5000122;28;20081;-72
2023/07/03 01:42:54;;;;;;;0.30;0.10;;;15.50;99.90;;;;;;4985349;28;20045;-71
2023/07/03 01:45:20;;;;;;;0.00;0.00;;;15.50;99.90;;;;;;5002380;28;20044;-72
2023/07/03 01:47:46;;;;;;;0.20;0.20;;;15.50;99.90;;;;;;5003362;28;20054;-71
2023/07/03 01:50:16;;;;;;;0.00;0.00;;;15.50;99.90;;;;;;4998548;28;20056;-71
2023/07/03 01:52:54;;;;;;;0.00;0.00;;;15.60;99.90;;;;;;5001035;28;20066;-71
2023/07/03 01:55:42;;;;;;;0.00;0.00;;;15.50;99.90;;;;;;4983385;28;20046;-71
2023/07/03 01:58:10;;;;;;;0.00;0.00;;;15.60;99.90;;;;;;5015133;28;20064;-71
2023/07/03 02:00:45;;;;;;;0.00;0.00;;;15.60;99.90;;;;;;5001573;28;20050;-71
2023/07/03 02:03:33;;;;;;;0.00;0.00;;;15.60;99.90;;;;;;5001878;28;20038;-71
2023/07/03 02:06:08;;;;;;;0.70;0.15;;;15.60;99.90;;;;;;5002792;28;20034;-71
2023/07/03 02:08:34;;;;;;;0.00;0.00;;;15.60;99.90;;;;;;4995072;28;20053;-71
2023/07/03 02:11:00;;;;;;;0.00;0.00;;;15.60;99.90;;;;;;5003406;28;20041;-71
2023/07/03 02:13:26;;;;;;;0.05;0.00;;;15.60;99.90;;;;;;5002932;28;20430;-71
2023/07/03 02:15:52;;;;;;;0.15;0.10;;;15.60;99.90;;;;;;4998460;28;20137;-71
2023/07/03 02:18:17;;;;;;;0.00;0.00;;;15.60;99.90;;;;;;4995107;28;20053;-71
2023/07/03 02:20:51;;;;;;;0.00;0.00;;;15.60;99.90;;;;;;4998452;28;20039;-72
2023/07/03 02:23:17;;;;;;;0.00;0.00;;;15.60;99.90;;;;;;5006177;28;20042;-71
2023/07/03 02:25:43;;;;;;;0.00;0.00;;;15.60;99.90;;;;;;4993841;28;20045;-71
2023/07/03 02:28:10;;;;;;;0.28;0.20;;;15.60;99.90;;;;;;4999182;28;20394;-72
2023/07/03 02:30:36;;;;;;;0.10;0.10;;;15.60;99.90;;;;;;5001546;28;20040;-73
2023/07/03 02:33:02;;;;;;;0.00;0.00;;;15.60;99.90;;;;;;5003925;28;20038;-73
2023/07/03 02:35:28;;;;;;;0.90;0.47;;;15.60;99.90;;;;;;4998748;28;20077;-72
2023/07/03 02:37:53;;;;;;;0.00;0.00;;;15.60;99.90;;;;;;4997113;28;20037;-72
2023/07/03 02:40:19;;;;;;;0.03;0.00;;;15.60;99.90;;;;;;5000928;28;20037;-72
2023/07/03 02:42:45;;;;;;;0.05;0.05;;;15.60;99.90;;;;;;5003439;28;20041;-72
2023/07/03 02:45:11;;;;;;;0.05;0.00;;;15.60;99.90;;;;;;4996743;28;20076;-72
2023/07/03 02:47:37;;;;;;;0.00;0.00;;;15.60;99.90;;;;;;5002733;28;20503;-73
2023/07/03 02:50:04;;;;;;;0.00;0.00;;;15.60;99.90;;;;;;5004381;28;20525;-72
2023/07/03 02:52:30;;;;;;;0.00;0.00;;;15.60;99.90;;;;;;5007311;28;20409;-73
2023/07/03 02:54:56;;;;;;;0.10;0.10;;;15.60;99.90;;;;;;4998907;28;20026;-72
2023/07/03 02:57:21;;;;;;;0.00;0.00;;;15.60;99.90;;;;;;4999397;28;20092;-72
2023/07/03 02:59:47;;;;;;;0.00;0.00;;;15.60;99.90;;;;;;5000609;28;20078;-72
2023/07/03 03:02:13;;;;;;;0.00;0.00;;;15.60;99.90;;;;;;5002583;28;20052;-72
2023/07/03 03:04:39;;;;;;;0.10;0.10;;;15.60;99.90;;;;;;4996254;28;20675;-72
2023/07/03 03:07:04;;;;;;;0.30;0.30;;;15.50;99.90;;;;;;5005634;28;20088;-72
2023/07/03 03:09:30;;;;;;;0.03;0.03;;;15.50;99.90;;;;;;5001547;28;20034;-72
2023/07/03 03:11:56;;;;;;;0.10;0.10;;;15.50;99.90;;;;;;5006024;28;20482;-72
2023/07/03 03:14:21;;;;;;;0.20;0.20;;;15.50;99.90;;;;;;4993608;28;20042;-73
2023/07/03 03:16:47;;;;;;;0.70;0.22;;;15.40;99.90;;;;;;5002245;28;20081;-72
2023/07/03 03:19:13;;;;;;;0.00;0.00;;;15.40;99.90;;;;;;5002705;28;20120;-72
2023/07/03 03:21:39;;;;;;;0.00;0.00;;;15.40;99.90;;;;;;5003579;28;20044;-72
2023/07/03 03:24:04;;;;;;;0.00;0.00;;;15.30;99.90;;;;;;4995858;28;20367;-72
2023/07/03 03:26:31;;;;;;;0.10;0.10;;;15.30;99.90;;;;;;5000648;28;20111;-72
2023/07/03 03:28:57;;;;;;;0.00;0.00;;;15.20;99.90;;;;;;5000171;28;20140;-72
2023/07/03 03:31:23;;;;;;;0.13;0.13;;;15.20;99.90;;;;;;5001941;28;20041;-72
2023/07/03 03:33:49;;;;;;;0.10;0.10;;;15.10;99.90;;;;;;5005072;28;20584;-72
2023/07/03 03:36:15;;;;;;;0.45;0.35;;;15.10;99.90;;;;;;5008495;28;20080;-72
2023/07/03 03:38:41;;;;;;;0.00;0.00;;;15.00;99.90;;;;;;5002695;28;20048;-72
2023/07/03 03:41:07;;;;;;;0.20;0.20;;;14.90;99.90;;;;;;5004075;28;20042;-72
2023/07/03 03:43:33;;;;;;;0.65;0.17;;;14.80;99.90;;;;;;5003882;28;20157;-72
2023/07/03 03:46:00;;;;;;;0.00;0.00;;;14.80;99.90;;;;;;4998655;28;20212;-72
2023/07/03 03:48:27;;;;;;;0.00;0.00;;;14.70;99.90;;;;;;5003931;28;20050;-72
2023/07/03 03:50:55;;;;;;;0.00;0.00;;;14.70;99.90;;;;;;4986649;28;20042;-72
2023/07/03 03:53:21;;;;;;;0.00;0.00;;;14.60;99.90;;;;;;5000590;28;20038;-72
2023/07/03 03:55:51;;;;;;;0.00;0.00;;;14.50;99.90;;;;;;4999329;28;20120;-72
2023/07/03 03:58:18;;;;;;;0.08;0.00;;;14.40;99.90;;;;;;5002956;28;20050;-72
2023/07/03 04:00:44;;;;;;;0.00;0.00;;;14.40;99.90;;;;;;4989822;28;20044;-72
2023/07/03 04:03:10;;;;;;;0.00;0.00;;;14.30;99.90;;;;;;4994411;28;20050;-72
2023/07/03 04:05:36;;;;;;;0.00;0.00;;;14.20;99.90;;;;;;5002728;28;20060;-71
2023/07/03 04:08:02;;;;;;;0.00;0.00;;;14.20;99.90;;;;;;5002265;28;20033;-72
2023/07/03 04:10:27;;;;;;;0.00;0.00;;;14.20;99.90;;;;;;4999949;28;20124;-72
2023/07/03 04:12:53;;;;;;;0.00;0.00;;;14.10;99.90;;;;;;4999955;28;20053;-72
2023/07/03 04:15:21;;;;;;;0.00;0.00;;;14.10;99.90;;;;;;4985400;28;20042;-72
2023/07/03 04:17:47;;;;;;;0.10;0.10;;;14.20;99.90;;;;;;4997478;28;20046;-72
2023/07/03 04:20:15;;;;;;;0.00;0.00;;;14.20;99.90;;;;;;4999122;28;20632;-72
2023/07/03 04:22:41;;;;;;;0.17;0.17;;;14.20;99.90;;;;;;5000283;28;20606;-72
2023/07/03 04:25:08;;;;;;;0.00;0.00;;;14.30;99.90;;;;;;5006331;28;20039;-72
2023/07/03 04:27:34;;;;;;;0.00;0.00;;;14.30;99.90;;;;;;5002998;28;20391;-72
2023/07/03 04:30:01;;;;;;;0.00;0.00;;;14.30;99.90;;;;;;4998246;28;21249;-72
2023/07/03 04:32:28;;;;;;;0.00;0.00;;;14.40;99.90;;;;;;4997278;28;20259;-72
2023/07/03 04:34:53;;;;;;;0.20;0.20;;;14.40;99.90;;;;;;5003216;28;20386;-72
2023/07/03 04:37:19;;;;;;;0.00;0.00;;;14.50;99.90;;;;;;4997022;28;20172;-72
2023/07/03 04:39:45;;;;;;;1.00;0.45;;;14.60;99.90;;;;;;5003013;28;20077;-72
2023/07/03 04:42:13;;;;;;;0.35;0.00;;;14.70;99.90;;;;;;5001692;28;20042;-72
2023/07/03 04:44:43;;;;;;;0.10;0.10;;;14.70;99.90;;;;;;4998688;28;20050;-72
2023/07/03 04:47:09;;;;;;;0.00;0.00;;;14.80;99.90;;;;;;5000638;28;20059;-72
2023/07/03 04:49:35;;;;;;;0.00;0.00;;;15.00;99.90;;;;;;4997488;28;20057;-71
2023/07/03 04:52:01;;;;;;;0.00;0.00;;;15.20;99.90;;;;;;5001914;28;20486;-72
2023/07/03 04:54:30;;;;;;;0.00;0.00;;;15.30;99.90;;;;;;4989603;28;20406;-72
2023/07/03 04:56:56;;;;;;;0.00;0.00;;;15.40;99.90;;;;;;5001766;28;20055;-72
2023/07/03 04:59:22;;;;;;;0.90;0.25;;;15.60;99.90;;;;;;4992115;28;20386;-72
2023/07/03 05:01:48;;;;;;;0.00;0.00;;;15.70;99.90;;;;;;5002288;28;20127;-72
2023/07/03 05:04:13;;;;;;;0.00;0.00;;;16.00;99.90;;;;;;5006451;28;20129;-72
2023/07/03 05:06:39;;;;;;;0.00;0.00;;;16.60;99.90;;;;;;5000606;28;20116;-72
2023/07/03 05:09:05;;;;;;;0.10;0.10;;;17.20;99.90;;;;;;4997307;28;20041;-72
2023/07/03 05:11:33;;;;;;;0.00;0.00;;;17.40;99.90;;;;;;5003671;28;20041;-72
2023/07/03 05:13:59;;;;;;;2.25;0.28;;;17.30;99.90;;;;;;5000591;28;20152;-72
2023/07/03 05:16:25;;;;;;;0.00;0.00;;;17.00;99.90;;;;;;5006093;28;20073;-72
2023/07/03 05:18:52;;;;;;;0.00;0.00;;;16.80;99.90;;;;;;4996712;28;20058;-72
2023/07/03 05:21:17;;;;;;;0.00;0.00;;;16.60;99.90;;;;;;5000654;28;20057;-72
2023/07/03 05:23:43;;;;;;;0.00;0.00;;;16.40;99.90;;;;;;5005046;28;20042;-72
2023/07/03 05:26:09;;;;;;;0.10;0.10;;;16.20;99.90;;;;;;4999685;28;20124;-72
2023/07/03 05:28:36;;;;;;;0.25;0.17;;;16.10;99.90;;;;;;5001059;28;20540;-72
2023/07/03 05:31:02;;;;;;;0.05;0.00;;;16.10;99.90;;;;;;5001980;28;20572;-71
2023/07/03 05:33:29;;;;;;;0.00;0.00;;;16.00;99.90;;;;;;5005967;28;20056;-72
2023/07/03 05:35:56;;;;;;;0.03;0.03;;;16.10;99.90;;;;;;5001880;28;20081;-72
2023/07/03 05:38:22;;;;;;;0.00;0.00;;;16.10;99.90;;;;;;4999831;28;20509;-72
2023/07/03 05:40:50;;;;;;;0.00;0.00;;;16.20;99.90;;;;;;4996583;28;20054;-72
2023/07/03 05:43:16;;;;;;;2.40;0.22;;;16.40;99.90;;;;;;4990779;28;20049;-72
2023/07/03 05:45:42;;;;;;;0.00;0.00;;;16.50;99.90;;;;;;5003888;28;20041;-72
2023/07/03 05:48:11;;;;;;;0.00;0.00;;;16.60;99.90;;;;;;5004939;28;20077;-72
2023/07/03 05:50:36;;;;;;;0.00;0.00;;;16.70;99.90;;;;;;5005895;28;20076;-72
2023/07/03 05:53:03;;;;;;;3.40;0.35;;;16.80;99.90;;;;;;4988619;28;20065;-72
2023/07/03 05:55:28;;;;;;;0.43;0.10;;;17.00;99.90;;;;;;5004030;28;20042;-72
2023/07/03 05:57:54;;;;;;;0.00;0.00;;;17.10;99.90;;;;;;5002732;28;20049;-72
2023/07/03 06:00:21;;;;;;;0.00;0.00;;;17.20;99.90;;;;;;5008560;28;20033;-71
2023/07/03 06:02:51;;;;;;;0.10;0.10;;;17.30;99.90;;;;;;5011575;28;20049;-72
2023/07/03 06:05:18;;;;;;;0.10;0.10;;;17.40;99.90;;;;;;5008442;28;20161;-71
2023/07/03 06:07:43;;;;;;;1.00;0.60;;;17.50;99.90;;;;;;5005723;28;20402;-71
2023/07/03 06:10:10;;;;;;;0.00;0.00;;;17.60;99.90;;;;;;5010019;28;20038;-72
2023/07/03 06:12:36;;;;;;;0.00;0.00;;;17.70;99.90;;;;;;5008836;28;20113;-71
2023/07/03 06:15:02;;;;;;;0.45;0.25;;;17.80;99.90;;;;;;4997470;28;20129;-72
2023/07/03 06:17:29;;;;;;;0.00;0.00;;;17.90;99.90;;;;;;4999570;28;20046;-72
2023/07/03 06:19:55;;;;;;;0.25;0.20;;;18.00;99.90;;;;;;5005861;28;20525;-71
2023/07/03 06:22:21;;;;;;;1.35;0.30;;;18.00;99.90;;;;;;5005817;28;20042;-72
2023/07/03 06:24:47;;;;;;;0.00;0.00;;;18.10;99.90;;;;;;5011052;28;20050;-72
2023/07/03 06:27:13;;;;;;;0.00;0.00;;;18.20;99.90;;;;;;5001269;28;20042;-71
2023/07/03 06:29:40;;;;;;;0.10;0.03;;;18.20;99.90;;;;;;5005009;28;20577;-71
2023/07/03 06:32:08;;;;;;;1.85;0.57;;;18.20;99.90;;;;;;5004090;28;20029;-71
2023/07/03 06:34:34;;;;;;;0.00;0.00;;;18.30;99.90;;;;;;5001645;28;20100;-72
2023/07/03 06:37:05;;;;;;;0.13;0.13;;;18.40;99.90;;;;;;5002922;28;20077;-71
2023/07/03 06:39:32;;;;;;;0.00;0.00;;;18.40;99.90;;;;;;5005733;28;20100;-71
2023/07/03 06:41:58;;;;;;;0.00;0.00;;;18.50;99.90;;;;;;4999834;28;20045;-71
2023/07/03 06:44:24;;;;;;;0.25;0.13;;;18.50;99.90;;;;;;5002718;28;20400;-72
2023/07/03 06:46:50;;;;;;;0.85;0.52;;;18.40;99.90;;;;;;5007948;28;20116;-72
2023/07/03 06:49:17;;;;;;;0.00;0.00;;;18.50;99.90;;;;;;5004431;28;20038;-71
2023/07/03 06:51:43;;;;;;;1.33;0.20;;;18.50;99.90;;;;;;5019493;28;20041;-72
2023/07/03 06:54:09;;;;;;;1.80;0.30;;;18.50;99.90;;;;;;4998903;28;20405;-72
2023/07/03 06:56:35;;;;;;;0.00;0.00;;;18.40;99.90;;;;;;5003449;28;20037;-71
2023/07/03 06:59:01;;;;;;;0.00;0.00;;;18.40;99.90;;;;;;5006476;28;20422;-71
2023/07/03 07:01:30;;;;;;;0.73;0.32;;;18.40;99.90;;;;;;5006027;28;20104;-72
2023/07/03 07:03:56;;;;;;;0.20;0.10;;;18.40;99.90;;;;;;4999338;28;20164;-72
2023/07/03 07:06:27;;;;;;;0.10;0.10;;;18.40;99.90;;;;;;5003323;28;20434;-72
2023/07/03 07:08:53;;;;;;;0.00;0.00;;;18.50;99.90;;;;;;5003465;28;20078;-72
2023/07/03 07:11:28;;;;;;;0.00;0.00;;;18.60;99.90;;;;;;5001712;28;20081;-72
2023/07/03 07:13:56;;;;;;;0.20;0.00;;;18.70;99.90;;;;;;5005718;28;20038;-72
2023/07/03 07:16:27;;;;;;;0.57;0.22;;;18.50;99.90;;;;;;5005270;28;20374;-72
2023/07/03 07:18:56;;;;;;;0.00;0.00;;;18.30;99.90;;;;;;5002187;28;20046;-72
2023/07/03 07:21:23;;;;;;;0.47;0.47;;;18.10;99.90;;;;;;5008275;28;20358;-71
2023/07/03 07:23:53;;;;;;;0.00;0.00;;;18.00;99.90;;;;;;5001530;28;20113;-72
2023/07/03 07:26:22;;;;;;;0.00;0.00;;;18.20;99.90;;;;;;5021363;28;20517;-71
2023/07/03 07:28:47;;;;;;;0.03;0.03;;;18.40;99.90;;;;;;5001403;28;20524;-71
2023/07/03 07:31:23;;;;;;;0.00;0.00;;;18.60;99.90;;;;;;5010503;28;20034;-72
2023/07/03 07:33:49;;;;;;;0.00;0.00;;;18.90;99.90;;;;;;5001888;28;20080;-72
2023/07/03 07:36:17;;;;;;;0.10;0.05;;;19.10;99.90;;;;;;5007213;28;20467;-72
2023/07/03 07:38:43;;;;;;;0.88;0.22;;;19.20;99.90;;;;;;5007285;28;20077;-72
2023/07/03 07:41:08;;;;;;;0.00;0.00;;;19.50;99.90;;;;;;5004333;28;20062;-72
2023/07/03 07:43:35;;;;;;;0.25;0.20;;;19.70;99.90;;;;;;5002931;28;20049;-72
2023/07/03 07:46:01;;;;;;;0.00;0.00;;;19.80;99.90;;;;;;5000844;28;20064;-71
2023/07/03 07:48:27;;;;;;;0.13;0.13;;;19.90;99.90;;;;;;5002090;28;20414;-71
2023/07/03 07:50:53;;;;;;;0.00;0.00;;;19.90;99.90;;;;;;5009804;28;20121;-72
2023/07/03 07:53:18;;;;;;;0.32;0.17;;;20.00;97.90;;;;;;4998566;28;20124;-72
2023/07/03 07:55:44;;;;;;;1.00;0.28;;;20.00;99.80;;;;;;5001195;28;20053;-71
2023/07/03 07:58:11;;;;;;;0.00;0.00;;;20.00;99.20;;;;;;4997009;28;20038;-71
2023/07/03 08:00:36;;;;;;;0.00;0.00;;;20.10;99.90;;;;;;5001268;28;20038;-71
2023/07/03 08:03:02;;;;;;;0.00;0.00;;;20.20;99.90;;;;;;5003975;28;20042;-71
2023/07/03 08:05:28;;;;;;;0.00;0.00;;;20.30;99.30;;;;;;5004818;28;20046;-71
2023/07/03 08:07:54;;;;;;;0.00;0.00;;;20.40;97.00;;;;;;4999219;28;20034;-71
2023/07/03 08:10:20;;;;;;;0.28;0.00;;;20.50;98.80;;;;;;5001354;28;20048;-72
2023/07/03 08:12:46;;;;;;;0.20;0.20;;;20.70;99.90;;;;;;5003908;28;20116;-72
2023/07/03 08:15:12;;;;;;;0.10;0.08;;;20.80;95.20;;;;;;5002995;28;20049;-71
2023/07/03 08:17:38;;;;;;;0.00;0.00;;;21.10;95.60;;;;;;5009299;28;20701;-71
2023/07/03 08:20:11;;;;;;;0.22;0.22;;;21.30;97.50;;;;;;5003837;28;20474;-71
2023/07/03 08:22:39;;;;;;;0.00;0.00;;;21.40;95.90;;;;;;5005423;28;20046;-71
2023/07/03 08:25:06;;;;;;;0.00;0.00;;;21.50;94.90;;;;;;5003511;28;20417;-71
2023/07/03 08:27:32;;;;;;;0.10;0.00;;;21.60;90.40;;;;;;4999546;28;20045;-71
2023/07/03 08:29:58;;;;;;;0.00;0.00;;;21.70;92.90;;;;;;4997145;28;20478;-71
2023/07/03 08:32:23;;;;;;;0.00;0.00;;;21.60;92.90;;;;;;4999542;28;20042;-71
2023/07/03 08:34:50;;;;;;;0.43;0.25;;;21.40;94.80;;;;;;5008437;28;20155;-72
2023/07/03 08:37:16;;;;;;;0.10;0.10;;;21.20;93.80;;;;;;5001858;28;20559;-71
2023/07/03 08:39:42;;;;;;;0.00;0.00;;;21.10;92.70;;;;;;4999934;28;20382;-71
2023/07/03 08:42:12;;;;;;;0.00;0.00;;;21.10;91.10;;;;;;4997366;28;20046;-71
2023/07/03 08:44:38;;;;;;;0.45;0.17;;;20.80;87.90;;;;;;4998173;28;20119;-71
2023/07/03 08:47:06;;;;;;;0.00;0.00;;;20.60;91.20;;;;;;5000136;28;20126;-72
2023/07/03 08:49:33;;;;;;;0.00;0.00;;;20.30;90.60;;;;;;5004675;28;20046;-71
2023/07/03 08:52:00;;;;;;;0.45;0.10;;;20.00;90.80;;;;;;5005921;28;20367;-72
2023/07/03 08:54:32;;;;;;;0.08;0.08;;;19.80;91.80;;;;;;5008103;28;20050;-72
2023/07/03 08:57:00;;;;;;;0.00;0.00;;;19.50;92.60;;;;;;4999669;28;20042;-72
2023/07/03 08:59:26;;;;;;;0.70;0.03;;;19.40;95.20;;;;;;4985041;28;20410;-72
2023/07/03 09:02:08;;;;;;;0.00;0.00;;;19.20;97.00;;;;;;5003673;28;20129;-72
2023/07/03 09:04:52;;;;;;;0.10;0.00;;;19.00;99.40;;;;;;5005801;28;20432;-72
2023/07/03 09:07:33;;;;;;;0.00;0.00;;;18.90;99.30;;;;;;5006004;28;20037;-72
2023/07/03 09:10:24;;;;;;;0.00;0.00;;;18.80;99.90;;;;;;4996765;28;20513;-72
2023/07/03 09:13:02;;;;;;;0.00;0.00;;;18.90;99.90;;;;;;5005161;28;20044;-72
2023/07/03 09:15:34;;;;;;;0.00;0.00;;;18.80;99.90;;;;;;4994951;28;20213;-72
2023/07/03 09:18:02;;;;;;;0.00;0.00;;;18.80;99.90;;;;;;5000564;28;20038;-72
2023/07/03 09:20:30;;;;;;;0.00;0.00;;;18.70;99.90;;;;;;5001686;28;20188;-72
2023/07/03 09:23:08;;;;;;;0.00;0.00;;;18.60;99.90;;;;;;5005089;28;20046;-73
2023/07/03 09:25:44;;;;;;;0.00;0.00;;;18.50;99.90;;;;;;4991729;28;20053;-72
2023/07/03 09:28:10;;;;;;;0.00;0.00;;;18.50;99.90;;;;;;4997407;28;20069;-72
2023/07/03 09:30:39;;;;;;;0.03;0.00;;;18.80;99.90;;;;;;4991153;28;20177;-72
2023/07/03 09:33:06;;;;;;;0.00;0.00;;;19.30;99.90;;;;;;5001545;28;20038;-72
2023/07/03 09:35:40;;;;;;;0.80;0.22;;;19.80;99.90;;;;;;4995812;28;20120;-72
2023/07/03 09:38:14;;;;;;;;;;;20.00;99.90;;;;;;5004236;28;20443;-72
2023/07/03 09:40:43;;;;;;;0.32;0.10;;;19.90;97.50;;;;;;5002006;28;19921;-72
2023/07/03 09:43:39;;;;;;;0.00;0.00;;;19.70;97.20;;;;;;5001503;28;20050;-72
2023/07/03 09:46:13;;;;;;;0.00;0.00;;;19.50;97.10;;;;;;5006440;28;20050;-72
2023/07/03 09:48:39;;;;;;;0.10;0.00;;;19.40;96.60;;;;;;5019737;28;20041;-72
2023/07/03 09:51:20;;;;;;;0.00;0.00;;;19.50;98.90;;;;;;5000459;28;20454;-73
2023/07/03 09:53:46;;;;;;;0.00;0.00;;;19.80;97.80;;;;;;5008411;28;20740;-72
2023/07/03 09:56:19;;;;;;;0.08;0.00;;;20.10;96.80;;;;;;4996642;28;20073;-72
2023/07/03 09:58:59;;;;;;;0.00;0.00;;;20.50;93.00;;;;;;5002528;28;20041;-73
2023/07/03 10:01:29;;;;;;;0.22;0.15;;;20.90;90.20;;;;;;5004214;28;20049;-72
2023/07/03 10:04:07;;;;;;;0.10;0.10;;;21.00;91.70;;;;;;5003058;28;20042;-72
2023/07/03 10:06:33;;;;;;;0.10;0.00;;;21.30;92.30;;;;;;5000702;28;20053;-73
2023/07/03 10:09:03;;;;;;;0.08;0.00;;;21.60;92.20;;;;;;5001045;28;20158;-72
2023/07/03 10:11:44;;;;;;;0.85;0.28;;;21.80;90.50;;;;;;5003905;28;20048;-72
2023/07/03 10:14:17;;;;;;;0.00;0.00;;;21.70;80.60;;;;;;4999021;28;20034;-72
2023/07/03 10:16:43;;;;;;;0.00;0.00;;;21.60;87.20;;;;;;5003116;28;20030;-72
2023/07/03 10:19:10;;;;;;;0.00;0.00;;;21.30;86.40;;;;;;4999196;28;20082;-72
2023/07/03 10:21:38;;;;;;;0.00;0.00;;;21.00;86.10;;;;;;5002100;28;20033;-72
2023/07/03 10:24:05;;;;;;;0.00;0.00;;;20.60;88.20;;;;;;5003329;28;20410;-72
2023/07/03 10:26:34;;;;;;;0.00;0.00;;;20.50;90.30;;;;;;5000575;28;20052;-72
2023/07/03 10:29:33;;;;;;;0.25;0.20;;;20.40;90.20;;;;;;5002361;28;20524;-72
2023/07/03 10:32:08;;;;;;;0.43;0.20;;;20.50;91.20;;;;;;5018273;28;20053;-72
2023/07/03 10:34:52;;;;;;;0.00;0.00;;;20.60;91.40;;;;;;5000917;28;20458;-72
2023/07/03 10:37:20;;;;;;;0.00;0.00;;;20.60;92.60;;;;;;5001016;28;20430;-72
2023/07/03 10:39:57;;;;;;;0.00;0.00;;;20.50;91.10;;;;;;5000425;28;20048;-72
2023/07/03 10:42:30;;;;;;;0.00;0.00;;;20.50;92.70;;;;;;4994801;28;20395;-72
2023/07/03 10:45:02;;;;;;;0.00;0.00;;;20.80;93.90;;;;;;5000171;28;20058;-72
2023/07/03 10:47:39;;;;;;;0.17;0.00;;;21.40;93.90;;;;;;5001252;28;20058;-72
2023/07/03 10:50:08;;;;;;;0.00;0.00;;;22.10;91.10;;;;;;5005141;28;20045;-72
2023/07/03 10:52:42;;;;;;;0.00;0.00;;;22.80;86.40;;;;;;4997999;28;20054;-71
2023/07/03 10:55:07;;;;;;;0.00;0.00;;;23.10;79.10;;;;;;5008634;28;20089;-72
2023/07/03 10:58:10;;;;;;;0.13;0.13;;;22.80;71.40;;;;;;5001507;28;20046;-72
2023/07/03 11:01:11;;;;;;;0.00;0.00;;;22.30;71.30;;;;;;5000275;28;20046;-72
2023/07/03 11:03:58;;;;;;;0.90;0.30;;;21.90;72.10;;;;;;5007370;28;20481;-72
2023/07/03 11:06:31;;;;;;;0.00;0.00;;;21.60;77.50;;;;;;4989882;28;20129;-72
2023/07/03 11:09:14;;;;;;;0.00;0.00;;;21.30;75.30;;;;;;5000533;28;20053;-72
2023/07/03 11:11:47;;;;;;;0.00;0.00;;;21.00;76.50;;;;;;5001294;28;20078;-72
2023/07/03 11:14:18;;;;;;;0.00;0.00;;;20.70;79.10;;;;;;5002213;28;20041;-72
2023/07/03 11:16:52;;;;;;;0.00;0.00;;;20.30;78.80;;;;;;4990031;28;20033;-72
2023/07/03 11:19:49;;;;;;;0.00;0.00;;;20.10;82.90;;;;;;4999049;28;20251;-72
2023/07/03 11:22:27;;;;;;;0.00;0.00;;;19.90;84.70;;;;;;5003454;28;20133;-72
2023/07/03 11:25:16;;;;;;;0.00;0.00;;;19.70;86.20;;;;;;5020460;28;20074;-72
2023/07/03 11:28:41;;;;;;;0.20;0.10;;;19.60;88.80;;;;;;5000170;28;20043;-72
2023/07/03 11:31:09;;;;;;;1.55;0.30;;;19.60;91.10;;;;;;5022198;28;20048;-72
2023/07/03 11:33:36;;;;;;;0.00;0.00;;;19.70;92.10;;;;;;5002298;28;20045;-72
2023/07/03 11:36:02;;;;;;;0.00;0.00;;;20.20;93.50;;;;;;5015807;28;20054;-72
2023/07/03 11:38:28;;;;;;;0.00;0.00;;;20.90;90.60;;;;;;4996258;28;20046;-73
2023/07/03 11:40:54;;;;;;;0.20;0.15;;;21.50;90.20;;;;;;5001038;28;20080;-72
2023/07/03 11:43:21;;;;;;;0.00;0.00;;;21.80;87.30;;;;;;5002658;28;20116;-72
2023/07/03 11:46:03;;;;;;;0.00;0.00;;;22.20;89.40;;;;;;5008087;28;20055;-72
2023/07/03 11:48:28;;;;;;;0.00;0.00;;;22.40;82.30;;;;;;4995907;28;20042;-72
2023/07/03 11:51:03;;;;;;;0.00;0.00;;;22.20;79.70;;;;;;5000326;28;20091;-72
2023/07/03 11:54:07;;;;;;;0.43;0.15;;;22.30;85.50;;;;;;5004023;28;20050;-72
2023/07/03 11:56:36;;;;;;;0.00;0.00;;;22.30;85.50;;;;;;4971274;28;20046;-72
2023/07/03 11:59:04;;;;;;;0.05;0.00;;;22.40;81.20;;;;;;4981103;28;20082;-71
2023/07/03 12:01:30;;;;;;;0.00;0.00;;;22.50;82.40;;;;;;4985555;28;20147;-72
2023/07/03 12:04:02;;;;;;;0.00;0.00;;;22.50;76.30;;;;;;5001619;28;20374;-71
2023/07/03 12:06:40;;;;;;;0.90;0.10;;;22.30;73.60;;;;;;5000776;28;20037;-71
2023/07/03 12:09:20;;;;;;;0.13;0.13;;;21.80;75.90;;;;;;4997665;28;20096;-71
2023/07/03 12:12:06;;;;;;;0.00;0.00;;;21.40;73.60;;;;;;4999038;28;20042;-71
2023/07/03 12:17:27;;;;;;;0.00;0.00;;;20.80;75.20;;;;;;5005618;28;20038;-71
2023/07/03 12:19:54;;;;;;;0.00;0.00;;;21.00;75.50;;;;;;4999149;28;20630;-70
2023/07/03 12:22:27;;;;;;;0.28;0.10;;;21.30;79.20;;;;;;5004744;28;20034;-71
2023/07/03 12:25:25;;;;;;;0.10;0.10;;;21.40;71.60;;;;;;4983890;28;20046;-72
2023/07/03 12:27:52;;;;;;;0.00;0.00;;;21.10;70.20;;;;;;5005002;28;20057;-72
2023/07/03 12:30:27;;;;;;;0.00;0.00;;;20.90;70.50;;;;;;5002565;28;20096;-72
2023/07/03 12:32:54;;;;;;;0.00;0.00;;;20.80;74.30;;;;;;5007388;28;20038;-72
2023/07/03 12:35:24;;;;;;;0.00;0.00;;;20.80;73.10;;;;;;4996093;28;20085;-72
2023/07/03 12:37:58;;;;;;;0.30;0.05;;;20.90;75.10;;;;;;5006313;28;20085;-72
2023/07/03 12:40:26;;;;;;;0.20;0.00;;;20.90;75.40;;;;;;5002006;28;20061;-73
2023/07/03 12:42:55;;;;;;;0.03;0.03;;;20.90;77.80;;;;;;5001835;28;20035;-72
2023/07/03 12:45:26;;;;;;;0.00;0.00;;;20.70;74.70;;;;;;4999845;28;20419;-73
2023/07/03 12:48:01;;;;;;;0.00;0.00;;;20.40;75.60;;;;;;5000031;28;20125;-72
2023/07/03 12:50:27;;;;;;;0.10;0.10;;;20.10;76.60;;;;;;5020015;28;20446;-72
2023/07/03 12:53:01;;;;;;;0.00;0.00;;;19.90;76.50;;;;;;4996731;28;20065;-72
2023/07/03 12:55:31;;;;;;;0.63;0.03;;;19.60;78.00;;;;;;4996077;28;20046;-72
2023/07/03 12:57:57;;;;;;;0.30;0.10;;;19.40;79.50;;;;;;5004532;28;20046;-72
2023/07/03 13:00:32;;;;;;;0.00;0.00;;;19.60;80.10;;;;;;5005400;28;20053;-73
2023/07/03 13:03:02;;;;;;;0.05;0.00;;;20.00;82.20;;;;;;5002492;28;20505;-71